Time;durP1;ratioP1;P1;durP2;ratioP2;P2;SDS_P1;SDS_P2;PMS_P1;PMS_P2;Temp;Humidity;BMP_temperature;BMP_pressure;BME280_temperature;BME280_humidity;BME280_pressure;Samples;Min_cycle;Max_cycle;Signal;HPM_P1;HPM_P2
2021/12/26 00:00:44;;;;;;;9.65;2.15;;;;;;;;;;5090385;28;20071;-71
2021/12/26 00:03:10;;;;;;;12.40;2.25;;;;;;;;;;5090304;28;20073;-72
2021/12/26 00:05:36;;;;;;;8.98;2.00;;;;;;;;;;5090972;28;20020;-68
2021/12/26 00:08:02;;;;;;;7.05;2.20;;;;;;;;;;5088602;28;20419;-63
2021/12/26 00:10:29;;;;;;;7.70;2.10;;;;;;;;;;5081723;28;20103;-72
2021/12/26 00:12:55;;;;;;;8.77;1.90;;;;;;;;;;5069982;28;20032;-62
2021/12/26 00:15:21;;;;;;;14.43;2.47;;;;;;;;;;5069900;28;20043;-71
2021/12/26 00:17:48;;;;;;;9.55;2.13;;;;;;;;;;5071138;28;20102;-70
2021/12/26 00:20:14;;;;;;;8.68;2.35;;;;;;;;;;5074958;28;20021;-72
2021/12/26 00:22:41;;;;;;;11.25;2.55;;;;;;;;;;5073841;28;20124;-72
2021/12/26 00:25:08;;;;;;;6.22;2.15;;;;;;;;;;5074971;28;20029;-71
2021/12/26 00:27:35;;;;;;;11.57;2.58;;;;;;;;;;5087067;28;20496;-70
2021/12/26 00:30:01;;;;;;;10.68;2.67;;;;;;;;;;5093805;28;20034;-72
2021/12/26 00:32:27;;;;;;;11.43;2.67;;;;;;;;;;5095231;28;20020;-72
2021/12/26 00:34:53;;;;;;;11.00;2.22;;;;;;;;;;5095442;28;20073;-70
2021/12/26 00:37:20;;;;;;;7.50;2.30;;;;;;;;;;5095260;28;20053;-72
2021/12/26 00:39:46;;;;;;;5.65;2.10;;;;;;;;;;5095115;28;20032;-72
2021/12/26 00:42:12;;;;;;;7.78;2.10;;;;;;;;;;5095020;28;20032;-71
2021/12/26 00:44:40;;;;;;;4.95;2.17;;;;;;;;;;5095094;28;20100;-70
2021/12/26 00:47:09;;;;;;;7.68;2.50;;;;;;;;;;5094892;28;20016;-70
2021/12/26 00:49:35;;;;;;;14.52;2.50;;;;;;;;;;5094987;28;20027;-72
2021/12/26 00:52:02;;;;;;;8.18;2.00;;;;;;;;;;5094662;28;20024;-72
2021/12/26 00:54:28;;;;;;;14.45;2.60;;;;;;;;;;5094769;28;20048;-72
2021/12/26 00:56:56;;;;;;;12.88;2.50;;;;;;;;;;5093710;28;20543;-73
2021/12/26 00:59:22;;;;;;;8.02;2.20;;;;;;;;;;5094894;28;20050;-73
2021/12/26 01:01:48;;;;;;;6.50;2.10;;;;;;;;;;5094511;28;20028;-73
2021/12/26 01:04:14;;;;;;;6.00;1.77;;;;;;;;;;5081246;28;20020;-73
2021/12/26 01:06:41;;;;;;;7.50;2.40;;;;;;;;;;5074374;28;20020;-73
2021/12/26 01:09:10;;;;;;;6.22;2.33;;;;;;;;;;5074348;28;20025;-69
2021/12/26 01:11:46;;;;;;;6.05;1.95;;;;;;;;;;5074238;28;20044;-73
2021/12/26 01:14:14;;;;;;;5.97;1.85;;;;;;;;;;5074140;28;20020;-71
2021/12/26 01:16:41;;;;;;;6.00;2.13;;;;;;;;;;5074040;28;20033;-68
2021/12/26 01:19:14;;;;;;;5.80;1.88;;;;;;;;;;5072613;28;20101;-75
2021/12/26 01:21:42;;;;;;;8.73;2.20;;;;;;;;;;5076313;28;20028;-73
2021/12/26 01:24:10;;;;;;;6.85;2.05;;;;;;;;;;5093461;28;20047;-69
2021/12/26 01:26:36;;;;;;;5.20;1.95;;;;;;;;;;5093959;28;20016;-68
2021/12/26 01:29:03;;;;;;;6.20;2.20;;;;;;;;;;5093336;28;20027;-66
2021/12/26 01:31:30;;;;;;;5.22;2.00;;;;;;;;;;5092917;28;20403;-63
2021/12/26 01:34:00;;;;;;;8.45;2.05;;;;;;;;;;5093756;28;20026;-64
2021/12/26 01:36:27;;;;;;;6.07;2.08;;;;;;;;;;5091268;28;20020;-70
2021/12/26 01:38:56;;;;;;;10.23;2.00;;;;;;;;;;5093706;28;20440;-72
2021/12/26 01:41:22;;;;;;;7.78;1.80;;;;;;;;;;5093780;28;20024;-68
2021/12/26 01:43:49;;;;;;;7.80;2.38;;;;;;;;;;5094080;28;20024;-72
2021/12/26 01:46:16;;;;;;;7.63;2.35;;;;;;;;;;5093695;28;20034;-70
2021/12/26 01:48:43;;;;;;;5.38;2.00;;;;;;;;;;5093556;28;20024;-73
2021/12/26 01:51:09;;;;;;;6.88;1.98;;;;;;;;;;5093635;28;20476;-69
2021/12/26 01:53:38;;;;;;;7.03;2.03;;;;;;;;;;5093739;28;20016;-73
2021/12/26 01:56:08;;;;;;;5.88;1.98;;;;;;;;;;5093445;28;20012;-63
2021/12/26 01:58:36;;;;;;;5.85;1.95;;;;;;;;;;5093432;28;20076;-67
2021/12/26 02:01:13;;;;;;;6.13;1.77;;;;;;;;;;5091897;28;20111;-70
2021/12/26 02:03:40;;;;;;;4.43;1.70;;;;;;;;;;5089955;28;20055;-63
2021/12/26 02:06:07;;;;;;;7.30;2.13;;;;;;;;;;5091502;28;20048;-70
2021/12/26 02:08:34;;;;;;;5.05;1.92;;;;;;;;;;5090678;28;20388;-72
2021/12/26 02:11:02;;;;;;;7.25;2.03;;;;;;;;;;5091055;28;20031;-73
2021/12/26 02:13:29;;;;;;;5.63;2.17;;;;;;;;;;5092891;28;20684;-73
2021/12/26 02:15:55;;;;;;;4.63;1.90;;;;;;;;;;5092735;28;20024;-70
2021/12/26 02:18:22;;;;;;;5.97;2.08;;;;;;;;;;5092541;28;20027;-71
2021/12/26 02:28:38;;;;;;;7.82;2.55;;;;;;;;;;5092023;28;20405;-65
2021/12/26 02:31:05;;;;;;;4.40;1.95;;;;;;;;;;5092871;28;20024;-73
2021/12/26 02:33:31;;;;;;;4.90;1.90;;;;;;;;;;5092806;28;20028;-72
2021/12/26 02:35:57;;;;;;;4.13;1.85;;;;;;;;;;5092914;28;20024;-65
2021/12/26 02:38:23;;;;;;;4.25;1.80;;;;;;;;;;5092719;28;20403;-63
2021/12/26 02:40:51;;;;;;;7.47;2.05;;;;;;;;;;5091906;28;20550;-71
2021/12/26 02:43:18;;;;;;;6.05;2.30;;;;;;;;;;5092241;28;20043;-72
2021/12/26 02:45:44;;;;;;;5.03;1.85;;;;;;;;;;5092608;28;20027;-72
2021/12/26 02:48:11;;;;;;;4.35;1.80;;;;;;;;;;5092264;28;20077;-69
2021/12/26 02:50:40;;;;;;;4.97;1.70;;;;;;;;;;5092592;28;20027;-72
2021/12/26 02:53:08;;;;;;;4.15;1.58;;;;;;;;;;5092427;28;20023;-73
2021/12/26 02:55:34;;;;;;;5.30;1.85;;;;;;;;;;5090935;28;20039;-65
2021/12/26 02:58:02;;;;;;;9.82;1.98;;;;;;;;;;5092478;28;20124;-72
2021/12/26 03:00:30;;;;;;;6.07;1.45;;;;;;;;;;5092494;28;20020;-73
2021/12/26 03:02:59;;;;;;;5.68;1.90;;;;;;;;;;5092183;28;20084;-73
2021/12/26 03:05:26;;;;;;;5.50;1.83;;;;;;;;;;5092307;28;20034;-72
2021/12/26 03:07:52;;;;;;;5.05;1.90;;;;;;;;;;5092195;28;20035;-72
2021/12/26 03:10:24;;;;;;;4.22;1.88;;;;;;;;;;5090910;28;20024;-74
2021/12/26 03:12:52;;;;;;;5.53;1.60;;;;;;;;;;5091937;28;20107;-73
2021/12/26 03:15:18;;;;;;;6.30;1.98;;;;;;;;;;5090864;28;20377;-74
2021/12/26 03:17:44;;;;;;;6.60;1.98;;;;;;;;;;5071816;28;20055;-70
2021/12/26 03:20:12;;;;;;;10.90;2.70;;;;;;;;;;5071778;28;20033;-69
2021/12/26 03:22:38;;;;;;;11.05;1.88;;;;;;;;;;5071380;28;20070;-71
2021/12/26 03:25:05;;;;;;;9.32;1.83;;;;;;;;;;5071670;28;20017;-71
2021/12/26 03:27:31;;;;;;;4.45;1.63;;;;;;;;;;5071323;28;20031;-73
2021/12/26 03:29:57;;;;;;;3.67;1.58;;;;;;;;;;5070061;28;20020;-72
2021/12/26 03:32:23;;;;;;;5.80;1.60;;;;;;;;;;5071581;28;20603;-72
2021/12/26 03:34:50;;;;;;;3.83;1.75;;;;;;;;;;5071796;28;20025;-73
2021/12/26 03:37:17;;;;;;;4.25;1.48;;;;;;;;;;5071893;28;20085;-72
2021/12/26 03:39:43;;;;;;;8.68;1.73;;;;;;;;;;5071849;28;20021;-73
2021/12/26 03:42:10;;;;;;;3.80;1.50;;;;;;;;;;5070185;28;20086;-68
2021/12/26 03:44:36;;;;;;;4.22;2.13;;;;;;;;;;5072022;28;20447;-73
2021/12/26 03:47:02;;;;;;;4.10;1.65;;;;;;;;;;5072052;28;20024;-74
2021/12/26 03:49:28;;;;;;;4.35;1.85;;;;;;;;;;5070588;28;20013;-73
2021/12/26 03:51:54;;;;;;;5.65;1.70;;;;;;;;;;5072021;28;20083;-72
2021/12/26 03:54:20;;;;;;;4.53;1.60;;;;;;;;;;5074811;28;20056;-73
2021/12/26 03:56:46;;;;;;;4.72;2.05;;;;;;;;;;5076215;28;20048;-73
2021/12/26 03:59:12;;;;;;;4.50;1.75;;;;;;;;;;5075978;28;20023;-70
2021/12/26 04:01:39;;;;;;;4.20;1.55;;;;;;;;;;5074198;28;20028;-73
2021/12/26 04:04:05;;;;;;;5.00;1.73;;;;;;;;;;5075766;28;20039;-71
2021/12/26 04:06:31;;;;;;;3.80;1.60;;;;;;;;;;5075734;28;20031;-71
2021/12/26 04:08:57;;;;;;;3.75;1.50;;;;;;;;;;5075679;28;20068;-68
2021/12/26 04:11:24;;;;;;;3.88;1.65;;;;;;;;;;5075488;28;20017;-70
2021/12/26 04:13:50;;;;;;;4.22;1.88;;;;;;;;;;5075406;28;20021;-70
2021/12/26 04:16:16;;;;;;;3.83;1.67;;;;;;;;;;5075165;28;20020;-70
2021/12/26 04:18:42;;;;;;;3.50;1.50;;;;;;;;;;5074183;28;20086;-68
2021/12/26 04:21:08;;;;;;;4.88;1.40;;;;;;;;;;5075471;28;20028;-65
2021/12/26 04:23:35;;;;;;;4.05;1.50;;;;;;;;;;5074290;28;20033;-66
2021/12/26 04:26:01;;;;;;;4.20;1.33;;;;;;;;;;5075504;28;20101;-70
2021/12/26 04:28:28;;;;;;;4.45;1.63;;;;;;;;;;5075673;28;20128;-68
2021/12/26 04:30:54;;;;;;;3.83;1.80;;;;;;;;;;5075339;28;20381;-70
2021/12/26 04:33:21;;;;;;;4.32;1.55;;;;;;;;;;5075471;28;20386;-70
2021/12/26 04:35:47;;;;;;;5.07;1.60;;;;;;;;;;5075321;28;20037;-69
2021/12/26 04:38:13;;;;;;;3.30;1.60;;;;;;;;;;5075260;28;20016;-69
2021/12/26 04:40:39;;;;;;;4.03;1.80;;;;;;;;;;5075104;28;20021;-69
2021/12/26 04:43:06;;;;;;;4.53;1.92;;;;;;;;;;5073682;28;20040;-72
2021/12/26 04:45:32;;;;;;;4.57;1.67;;;;;;;;;;5074751;28;20036;-70
2021/12/26 04:48:01;;;;;;;4.75;1.67;;;;;;;;;;5074538;28;20492;-68
2021/12/26 04:50:28;;;;;;;4.25;1.58;;;;;;;;;;5074555;28;20024;-73
2021/12/26 04:52:55;;;;;;;3.45;1.38;;;;;;;;;;5074618;28;20016;-72
2021/12/26 04:55:23;;;;;;;3.42;1.40;;;;;;;;;;5074509;28;20028;-73
2021/12/26 04:57:50;;;;;;;3.20;1.50;;;;;;;;;;5074320;28;20025;-70
2021/12/26 05:00:17;;;;;;;4.20;1.73;;;;;;;;;;5073290;28;20389;-66
2021/12/26 05:02:44;;;;;;;3.20;1.38;;;;;;;;;;5074467;28;20074;-65
2021/12/26 05:05:11;;;;;;;5.47;1.75;;;;;;;;;;5073006;28;20017;-69
2021/12/26 05:07:37;;;;;;;4.68;1.67;;;;;;;;;;5073228;28;20115;-68
2021/12/26 05:10:05;;;;;;;4.07;1.45;;;;;;;;;;5074514;28;20017;-71
2021/12/26 05:12:31;;;;;;;7.13;1.65;;;;;;;;;;5073907;28;20396;-71
2021/12/26 05:14:57;;;;;;;3.67;1.35;;;;;;;;;;5073374;28;20396;-71
2021/12/26 05:17:23;;;;;;;5.55;1.42;;;;;;;;;;5072936;28;20088;-73
2021/12/26 05:19:49;;;;;;;5.25;1.75;;;;;;;;;;5073137;28;20107;-69
2021/12/26 05:22:15;;;;;;;3.72;1.52;;;;;;;;;;5074445;28;20036;-74
2021/12/26 05:24:41;;;;;;;4.35;1.30;;;;;;;;;;5072976;28;20020;-71
2021/12/26 05:27:07;;;;;;;4.22;1.48;;;;;;;;;;5074223;28;20481;-72
2021/12/26 05:29:33;;;;;;;4.72;1.55;;;;;;;;;;5074296;28;20017;-73
2021/12/26 05:31:59;;;;;;;3.15;1.30;;;;;;;;;;5074306;28;20035;-70
2021/12/26 05:34:25;;;;;;;2.80;1.33;;;;;;;;;;5073961;28;20021;-70
2021/12/26 05:36:51;;;;;;;3.25;1.40;;;;;;;;;;5074267;28;20016;-73
2021/12/26 05:39:17;;;;;;;5.18;1.30;;;;;;;;;;5072988;28;20034;-71
2021/12/26 05:41:43;;;;;;;5.45;1.48;;;;;;;;;;5073180;28;20055;-74
2021/12/26 05:44:10;;;;;;;2.97;1.13;;;;;;;;;;5074112;28;20040;-73
2021/12/26 05:46:37;;;;;;;3.22;1.40;;;;;;;;;;5074134;28;20392;-73
2021/12/26 05:49:04;;;;;;;3.05;1.20;;;;;;;;;;5073848;28;20461;-70
2021/12/26 05:51:30;;;;;;;4.75;1.48;;;;;;;;;;5073651;28;20022;-73
2021/12/26 05:53:57;;;;;;;4.68;1.75;;;;;;;;;;5073835;28;20025;-73
2021/12/26 05:56:23;;;;;;;2.95;1.17;;;;;;;;;;5073801;28;20013;-74
2021/12/26 05:58:49;;;;;;;5.20;1.58;;;;;;;;;;5073548;28;20036;-69
2021/12/26 06:01:16;;;;;;;2.72;1.25;;;;;;;;;;5073047;28;20020;-67
2021/12/26 06:03:42;;;;;;;3.65;1.45;;;;;;;;;;5072378;28;20670;-67
2021/12/26 06:06:08;;;;;;;1.85;0.82;;;;;;;;;;5073673;28;20028;-66
2021/12/26 06:08:35;;;;;;;3.65;1.25;;;;;;;;;;5073351;28;20029;-70
2021/12/26 06:11:01;;;;;;;5.97;1.42;;;;;;;;;;5072850;28;20474;-71
2021/12/26 06:13:27;;;;;;;4.03;1.30;;;;;;;;;;5072898;28;20082;-68
2021/12/26 06:15:54;;;;;;;4.38;1.58;;;;;;;;;;5070958;28;20488;-66
2021/12/26 06:18:20;;;;;;;2.53;1.20;;;;;;;;;;5072709;28;20040;-65
2021/12/26 06:20:46;;;;;;;3.28;1.40;;;;;;;;;;5072777;28;20145;-68
2021/12/26 06:23:13;;;;;;;2.63;1.13;;;;;;;;;;5073001;28;20132;-67
2021/12/26 06:25:39;;;;;;;5.32;1.30;;;;;;;;;;5072897;28;20024;-68
2021/12/26 06:28:06;;;;;;;4.18;1.15;;;;;;;;;;5071605;28;20123;-68
2021/12/26 06:30:32;;;;;;;4.50;1.25;;;;;;;;;;5071245;28;20024;-65
2021/12/26 06:32:58;;;;;;;4.47;1.30;;;;;;;;;;5072632;28;20489;-68
2021/12/26 06:35:24;;;;;;;2.22;1.10;;;;;;;;;;5072838;28;20496;-72
2021/12/26 06:37:51;;;;;;;4.65;1.38;;;;;;;;;;5072658;28;20082;-70
2021/12/26 06:40:17;;;;;;;3.58;1.60;;;;;;;;;;5072826;28;20020;-70
2021/12/26 06:42:45;;;;;;;4.15;1.40;;;;;;;;;;5073158;28;20035;-68
2021/12/26 06:45:14;;;;;;;13.93;1.40;;;;;;;;;;5072755;28;20040;-67
2021/12/26 06:47:42;;;;;;;4.28;1.38;;;;;;;;;;5072831;28;20047;-70
2021/12/26 06:50:09;;;;;;;3.85;1.05;;;;;;;;;;5072668;28;20021;-68
2021/12/26 06:52:35;;;;;;;2.92;1.20;;;;;;;;;;5072563;28;20033;-72
2021/12/26 06:55:01;;;;;;;3.60;1.50;;;;;;;;;;5072548;28;20024;-70
2021/12/26 06:57:27;;;;;;;2.95;1.33;;;;;;;;;;5072428;28;20020;-68
2021/12/26 06:59:53;;;;;;;3.30;1.27;;;;;;;;;;5072291;28;20029;-71
2021/12/26 07:02:19;;;;;;;2.15;0.93;;;;;;;;;;5072416;28;20068;-70
2021/12/26 07:04:46;;;;;;;3.63;1.27;;;;;;;;;;5072506;28;20054;-69
2021/12/26 07:07:13;;;;;;;4.35;1.40;;;;;;;;;;5072630;28;20432;-69
2021/12/26 07:09:39;;;;;;;1.73;1.02;;;;;;;;;;5071967;28;20036;-71
2021/12/26 07:12:06;;;;;;;3.08;1.00;;;;;;;;;;5072310;28;20020;-71
2021/12/26 07:14:32;;;;;;;2.33;1.00;;;;;;;;;;5071816;28;20021;-66
2021/12/26 07:16:58;;;;;;;6.45;1.20;;;;;;;;;;5084112;28;20573;-70
2021/12/26 07:19:24;;;;;;;1.95;1.02;;;;;;;;;;5090807;28;20027;-70
2021/12/26 07:21:50;;;;;;;3.35;1.15;;;;;;;;;;5091552;28;20506;-69
2021/12/26 07:24:16;;;;;;;3.97;1.27;;;;;;;;;;5090695;28;20174;-71
2021/12/26 07:26:42;;;;;;;3.47;1.00;;;;;;;;;;5092138;28;20123;-68
2021/12/26 07:29:08;;;;;;;1.92;0.90;;;;;;;;;;5092283;28;20031;-70
2021/12/26 07:31:35;;;;;;;3.53;1.05;;;;;;;;;;5092152;28;20070;-71
2021/12/26 07:34:01;;;;;;;2.40;0.98;;;;;;;;;;5092128;28;20031;-73
2021/12/26 07:36:27;;;;;;;3.83;1.23;;;;;;;;;;5091611;28;20028;-72
2021/12/26 07:38:53;;;;;;;4.32;1.00;;;;;;;;;;5091689;28;20546;-72
2021/12/26 07:41:19;;;;;;;2.33;1.05;;;;;;;;;;5091554;28;20034;-70
2021/12/26 07:43:45;;;;;;;3.30;1.40;;;;;;;;;;5091669;28;20056;-70
2021/12/26 07:46:11;;;;;;;3.20;1.10;;;;;;;;;;5090605;28;20595;-72
2021/12/26 07:48:38;;;;;;;4.57;1.00;;;;;;;;;;5091828;28;20557;-74
2021/12/26 07:51:05;;;;;;;2.58;1.00;;;;;;;;;;5091743;28;20013;-71
2021/12/26 07:53:33;;;;;;;5.50;1.15;;;;;;;;;;5090696;28;20031;-67
2021/12/26 07:55:59;;;;;;;5.80;1.30;;;;;;;;;;5091992;28;20100;-70
2021/12/26 07:58:25;;;;;;;4.90;1.42;;;;;;;;;;5091405;28;20057;-70
2021/12/26 08:00:51;;;;;;;4.00;1.88;;;;;;;;;;5091477;28;20020;-70
2021/12/26 08:03:17;;;;;;;5.65;1.70;;;;;;;;;;5089857;28;20453;-72
2021/12/26 08:05:43;;;;;;;5.38;1.60;;;;;;;;;;5091533;28;20066;-74
2021/12/26 08:08:09;;;;;;;3.95;1.20;;;;;;;;;;5091435;28;20710;-68
2021/12/26 08:10:36;;;;;;;3.45;1.50;;;;;;;;;;5091423;28;20016;-70
2021/12/26 08:13:02;;;;;;;5.00;1.58;;;;;;;;;;5091748;28;20016;-74
2021/12/26 08:15:28;;;;;;;3.38;1.52;;;;;;;;;;5090212;28;20354;-71
2021/12/26 08:17:54;;;;;;;4.53;1.30;;;;;;;;;;5091240;28;20040;-70
2021/12/26 08:20:20;;;;;;;3.63;1.48;;;;;;;;;;5091320;28;20024;-71
2021/12/26 08:22:46;;;;;;;3.03;1.30;;;;;;;;;;5091336;28;20484;-72
2021/12/26 08:25:12;;;;;;;4.72;1.40;;;;;;;;;;5091344;28;20036;-65
2021/12/26 08:27:39;;;;;;;6.57;1.80;;;;;;;;;;5091361;28;20065;-67
2021/12/26 08:30:05;;;;;;;3.25;1.25;;;;;;;;;;5090022;28;20550;-69
2021/12/26 08:32:34;;;;;;;4.68;1.40;;;;;;;;;;5091218;28;20070;-72
2021/12/26 08:35:01;;;;;;;4.82;1.63;;;;;;;;;;5091239;28;20019;-68
2021/12/26 08:37:27;;;;;;;2.85;1.10;;;;;;;;;;5091080;28;20464;-72
2021/12/26 08:39:54;;;;;;;5.35;1.50;;;;;;;;;;5092680;28;20714;-67
2021/12/26 08:42:20;;;;;;;4.53;1.60;;;;;;;;;;5095041;28;20104;-72
2021/12/26 08:44:46;;;;;;;6.85;1.77;;;;;;;;;;5093766;28;20498;-73
2021/12/26 08:47:12;;;;;;;2.60;1.30;;;;;;;;;;5095238;28;20059;-69
2021/12/26 08:49:39;;;;;;;4.65;1.73;;;;;;;;;;5095253;28;20099;-72
2021/12/26 08:52:06;;;;;;;4.55;1.40;;;;;;;;;;5095343;28;20024;-70
2021/12/26 08:54:33;;;;;;;3.83;1.55;;;;;;;;;;5095226;28;20028;-71
2021/12/26 08:57:00;;;;;;;2.67;1.15;;;;;;;;;;5095191;28;20020;-73
2021/12/26 08:59:30;;;;;;;5.80;1.42;;;;;;;;;;5094977;28;20028;-74
2021/12/26 09:01:56;;;;;;;7.20;1.30;;;;;;;;;;5093299;28;20089;-75
2021/12/26 09:04:22;;;;;;;4.40;1.30;;;;;;;;;;5094060;28;20020;-71
2021/12/26 09:06:48;;;;;;;5.82;1.65;;;;;;;;;;5092819;28;20028;-72
2021/12/26 09:09:15;;;;;;;3.60;1.45;;;;;;;;;;5093399;28;20028;-74
2021/12/26 09:11:41;;;;;;;3.25;1.25;;;;;;;;;;5093506;28;20491;-73
2021/12/26 09:14:07;;;;;;;3.42;1.30;;;;;;;;;;5092336;28;20115;-65
2021/12/26 09:16:34;;;;;;;6.22;1.55;;;;;;;;;;5094490;28;20040;-74
2021/12/26 09:19:07;;;;;;;6.70;1.50;;;;;;;;;;5093068;28;20028;-73
2021/12/26 09:21:35;;;;;;;5.70;1.73;;;;;;;;;;5091354;28;20078;-72
2021/12/26 09:24:01;;;;;;;5.72;1.75;;;;;;;;;;5090827;28;20045;-74
2021/12/26 09:26:27;;;;;;;3.65;1.63;;;;;;;;;;5093159;28;20069;-74
2021/12/26 09:28:53;;;;;;;3.80;1.52;;;;;;;;;;5092911;28;20020;-69
2021/12/26 09:31:19;;;;;;;6.50;1.70;;;;;;;;;;5091397;28;20066;-71
2021/12/26 09:33:45;;;;;;;4.35;1.73;;;;;;;;;;5088731;28;20055;-72
2021/12/26 09:36:11;;;;;;;9.80;1.77;;;;;;;;;;5091647;28;20437;-71
2021/12/26 09:38:38;;;;;;;4.88;1.77;;;;;;;;;;5090315;28;20559;-64
2021/12/26 09:41:04;;;;;;;15.48;1.55;;;;;;;;;;5091198;28;20020;-76
2021/12/26 09:43:30;;;;;;;5.90;1.45;;;;;;;;;;5092626;28;20036;-76
2021/12/26 09:45:57;;;;;;;9.13;3.08;;;;;;;;;;5091416;28;20063;-77
2021/12/26 09:48:23;;;;;;;11.70;2.58;;;;;;;;;;5091399;28;20023;-69
2021/12/26 09:50:49;;;;;;;12.38;2.60;;;;;;;;;;5090037;28;20055;-73
2021/12/26 09:53:15;;;;;;;4.53;1.67;;;;;;;;;;5092580;28;20115;-77
2021/12/26 09:55:41;;;;;;;6.10;3.22;;;;;;;;;;5091769;28;20051;-72
2021/12/26 09:58:07;;;;;;;7.18;2.72;;;;;;;;;;5092574;28;20020;-72
2021/12/26 10:00:38;;;;;;;5.00;2.47;;;;;;;;;;5090237;28;20036;-77
2021/12/26 10:03:16;;;;;;;7.32;3.05;;;;;;;;;;5088038;28;20449;-76
2021/12/26 10:05:58;;;;;;;9.32;2.55;;;;;;;;;;5091472;28;20021;-70
2021/12/26 10:08:24;;;;;;;9.35;2.78;;;;;;;;;;5091021;28;20016;-69
2021/12/26 10:11:07;;;;;;;9.25;2.50;;;;;;;;;;5091067;28;20377;-69
2021/12/26 10:13:47;;;;;;;6.95;2.40;;;;;;;;;;5093205;28;20481;-68
2021/12/26 10:16:14;;;;;;;7.40;2.47;;;;;;;;;;5092884;28;20503;-75
2021/12/26 10:18:41;;;;;;;8.57;2.22;;;;;;;;;;5091916;28;20039;-73
2021/12/26 10:21:26;;;;;;;6.57;1.95;;;;;;;;;;5089849;28;20512;-72
2021/12/26 10:23:53;;;;;;;5.40;2.40;;;;;;;;;;5093013;28;20039;-78
2021/12/26 10:26:27;;;;;;;5.75;1.80;;;;;;;;;;5084517;28;20021;-76
2021/12/26 10:29:11;;;;;;;7.78;1.95;;;;;;;;;;5093109;28;20090;-72
2021/12/26 10:31:39;;;;;;;6.00;2.00;;;;;;;;;;5093150;28;20056;-77
2021/12/26 10:34:05;;;;;;;6.90;2.10;;;;;;;;;;5090305;28;20638;-74
2021/12/26 10:36:31;;;;;;;8.25;2.33;;;;;;;;;;5088635;28;20074;-73
2021/12/26 10:39:14;;;;;;;5.53;1.98;;;;;;;;;;5090165;28;20391;-74
2021/12/26 10:41:42;;;;;;;7.85;1.60;;;;;;;;;;5090141;28;20020;-71
2021/12/26 10:44:18;;;;;;;3.72;1.40;;;;;;;;;;5092698;28;20035;-78
2021/12/26 10:46:47;;;;;;;5.97;2.00;;;;;;;;;;5092434;28;20103;-74
2021/12/26 10:49:22;;;;;;;9.60;1.77;;;;;;;;;;5091090;28;20018;-66
2021/12/26 10:51:48;;;;;;;15.95;3.15;;;;;;;;;;5092306;28;20361;-70
2021/12/26 10:54:15;;;;;;;84.80;20.35;;;;;;;;;;5091400;28;20362;-76
2021/12/26 10:56:42;;;;;;;58.95;16.27;;;;;;;;;;5093108;28;20028;-67
2021/12/26 10:59:18;;;;;;;47.13;13.30;;;;;;;;;;5092921;28;20468;-73
2021/12/26 11:01:44;;;;;;;55.92;15.50;;;;;;;;;;5092551;28;20198;-75
2021/12/26 11:04:12;;;;;;;49.40;11.40;;;;;;;;;;5092600;28;20031;-73
2021/12/26 11:06:57;;;;;;;41.83;10.80;;;;;;;;;;5092496;28;20141;-74
2021/12/26 11:09:24;;;;;;;34.50;9.18;;;;;;;;;;5092039;28;20020;-71
2021/12/26 11:12:00;;;;;;;55.92;10.57;;;;;;;;;;5092316;28;20016;-77
2021/12/26 11:14:26;;;;;;;44.90;10.85;;;;;;;;;;5089769;28;20024;-72
2021/12/26 11:16:52;;;;;;;34.22;8.68;;;;;;;;;;5091705;28;20056;-66
2021/12/26 11:19:47;;;;;;;35.63;8.82;;;;;;;;;;5091921;28;20031;-67
2021/12/26 11:22:14;;;;;;;29.08;7.78;;;;;;;;;;5073433;28;20052;-65
2021/12/26 11:24:40;;;;;;;43.75;9.02;;;;;;;;;;5090070;28;20097;-70
2021/12/26 11:27:07;;;;;;;34.47;6.13;;;;;;;;;;5088955;28;20024;-66
2021/12/26 11:29:33;;;;;;;25.40;6.55;;;;;;;;;;5088907;28;20027;-66
2021/12/26 11:31:59;;;;;;;25.20;7.35;;;;;;;;;;5090374;28;20485;-74
2021/12/26 11:34:26;;;;;;;26.02;6.97;;;;;;;;;;5090746;28;20030;-65
2021/12/26 11:36:52;;;;;;;25.63;6.55;;;;;;;;;;5090823;28;20023;-68
2021/12/26 11:39:19;;;;;;;30.45;6.50;;;;;;;;;;5090873;28;20027;-65
2021/12/26 11:41:58;;;;;;;21.00;6.07;;;;;;;;;;5091993;28;20030;-72
2021/12/26 11:44:45;;;;;;;19.85;5.28;;;;;;;;;;5092083;28;20480;-70
2021/12/26 11:47:11;;;;;;;18.42;5.05;;;;;;;;;;5092110;28;20016;-64
2021/12/26 11:49:44;;;;;;;19.20;4.57;;;;;;;;;;5091973;28;20027;-73
2021/12/26 11:52:22;;;;;;;19.15;5.25;;;;;;;;;;5091955;28;20143;-66
2021/12/26 11:55:07;;;;;;;16.05;4.82;;;;;;;;;;5091904;28;20024;-71
2021/12/26 11:57:51;;;;;;;15.23;4.32;;;;;;;;;;5091935;28;20081;-67
2021/12/26 12:00:19;;;;;;;13.75;4.50;;;;;;;;;;5090680;28;20101;-68
2021/12/26 12:02:48;;;;;;;18.67;4.07;;;;;;;;;;5091551;28;20032;-69
2021/12/26 12:05:20;;;;;;;14.57;4.45;;;;;;;;;;5091580;28;20100;-72
2021/12/26 12:07:48;;;;;;;9.20;3.60;;;;;;;;;;5091700;28;20020;-68
2021/12/26 12:10:32;;;;;;;10.10;3.58;;;;;;;;;;5090539;28;20024;-67
2021/12/26 12:12:59;;;;;;;19.10;4.30;;;;;;;;;;5091816;28;20689;-69
2021/12/26 12:15:43;;;;;;;11.27;4.00;;;;;;;;;;5094484;28;20047;-68
2021/12/26 12:18:18;;;;;;;14.85;3.83;;;;;;;;;;5095446;28;20078;-65
2021/12/26 12:20:44;;;;;;;9.63;3.60;;;;;;;;;;5094352;28;20031;-64
2021/12/26 12:23:12;;;;;;;10.73;3.30;;;;;;;;;;5094486;28;20560;-67
2021/12/26 12:25:39;;;;;;;8.30;3.17;;;;;;;;;;5092421;28;20028;-64
2021/12/26 12:28:20;;;;;;;11.50;3.28;;;;;;;;;;5095542;28;20031;-65
2021/12/26 12:31:15;;;;;;;11.23;4.30;;;;;;;;;;5093835;28;20030;-64
2021/12/26 12:33:42;;;;;;;8.15;3.17;;;;;;;;;;5095347;28;20027;-67
2021/12/26 12:36:28;;;;;;;10.85;3.47;;;;;;;;;;5094232;28;20102;-64
2021/12/26 12:38:54;;;;;;;7.63;3.00;;;;;;;;;;5094059;28;20103;-65
2021/12/26 12:41:35;;;;;;;10.90;2.88;;;;;;;;;;5095267;28;20170;-69
2021/12/26 12:44:02;;;;;;;10.05;3.70;;;;;;;;;;5094033;28;20097;-64
2021/12/26 12:46:28;;;;;;;6.97;2.83;;;;;;;;;;5093653;28;20020;-73
2021/12/26 12:49:01;;;;;;;11.10;3.55;;;;;;;;;;5094930;28;20111;-65
2021/12/26 12:51:27;;;;;;;7.75;2.92;;;;;;;;;;5093742;28;20055;-73
2021/12/26 12:53:58;;;;;;;7.85;3.20;;;;;;;;;;5093936;28;20028;-70
2021/12/26 12:56:38;;;;;;;5.90;2.15;;;;;;;;;;5095026;28;20429;-64
2021/12/26 12:59:28;;;;;;;8.00;2.97;;;;;;;;;;5094792;28;20024;-66
2021/12/26 13:02:08;;;;;;;7.30;2.70;;;;;;;;;;5089029;28;20036;-70
2021/12/26 13:04:42;;;;;;;8.23;2.58;;;;;;;;;;5094568;28;20048;-64
2021/12/26 13:07:09;;;;;;;7.18;2.75;;;;;;;;;;5094531;28;20464;-64
2021/12/26 13:09:36;;;;;;;6.60;2.50;;;;;;;;;;5093563;28;20035;-65
2021/12/26 13:12:04;;;;;;;9.63;2.92;;;;;;;;;;5094830;28;20030;-64
2021/12/26 13:14:34;;;;;;;7.63;2.83;;;;;;;;;;5094952;28;20073;-69
2021/12/26 13:17:01;;;;;;;6.07;2.47;;;;;;;;;;5093332;28;20127;-66
2021/12/26 13:19:27;;;;;;;6.38;2.67;;;;;;;;;;5094736;28;20027;-63
2021/12/26 13:21:56;;;;;;;7.25;2.97;;;;;;;;;;5094645;28;20180;-64
2021/12/26 13:24:39;;;;;;;6.13;2.50;;;;;;;;;;5094865;28;20024;-63
2021/12/26 13:27:06;;;;;;;7.28;2.78;;;;;;;;;;5094601;28;20032;-72
2021/12/26 13:29:33;;;;;;;5.57;2.13;;;;;;;;;;5094185;28;20017;-64
2021/12/26 13:31:59;;;;;;;5.45;2.30;;;;;;;;;;5094300;28;20024;-64
2021/12/26 13:34:25;;;;;;;6.70;2.42;;;;;;;;;;5094317;28;20043;-68
2021/12/26 13:36:51;;;;;;;5.55;2.47;;;;;;;;;;5094200;28;20032;-63
2021/12/26 13:39:19;;;;;;;5.85;2.50;;;;;;;;;;5092704;28;20392;-64
2021/12/26 13:41:46;;;;;;;6.78;2.25;;;;;;;;;;5094115;28;20423;-64
2021/12/26 13:44:13;;;;;;;6.20;2.53;;;;;;;;;;5093023;28;20553;-65
2021/12/26 13:46:39;;;;;;;8.82;2.00;;;;;;;;;;5094174;28;20047;-67
2021/12/26 13:49:09;;;;;;;5.95;2.33;;;;;;;;;;5093932;28;20025;-63
2021/12/26 13:51:36;;;;;;;4.90;2.17;;;;;;;;;;5093801;28;20024;-63
2021/12/26 13:54:08;;;;;;;4.80;1.98;;;;;;;;;;5093756;28;20015;-64
2021/12/26 13:56:47;;;;;;;4.47;1.80;;;;;;;;;;5093474;28;20476;-64
2021/12/26 13:59:28;;;;;;;5.38;2.25;;;;;;;;;;5093624;28;20012;-68
2021/12/26 14:01:55;;;;;;;5.72;2.10;;;;;;;;;;5092429;28;20663;-64
2021/12/26 14:04:24;;;;;;;5.18;2.03;;;;;;;;;;5093587;28;20081;-67
2021/12/26 14:06:50;;;;;;;5.95;1.92;;;;;;;;;;5093496;28;20069;-67
2021/12/26 14:09:16;;;;;;;4.80;1.80;;;;;;;;;;5093680;28;20020;-64
2021/12/26 14:11:42;;;;;;;5.57;1.60;;;;;;;;;;5092362;28;20495;-63
2021/12/26 14:14:09;;;;;;;4.35;1.70;;;;;;;;;;5093472;28;20024;-67
2021/12/26 14:16:41;;;;;;;7.65;1.85;;;;;;;;;;5093447;28;20020;-64
2021/12/26 14:19:09;;;;;;;6.60;1.98;;;;;;;;;;5092290;28;20031;-64
2021/12/26 14:21:46;;;;;;;4.15;1.83;;;;;;;;;;5093297;28;20027;-65
2021/12/26 14:24:13;;;;;;;5.57;1.90;;;;;;;;;;5093566;28;20026;-74
2021/12/26 14:26:39;;;;;;;4.38;1.40;;;;;;;;;;5091225;28;20128;-63
2021/12/26 14:29:06;;;;;;;4.43;1.85;;;;;;;;;;5093289;28;20043;-68
2021/12/26 14:31:37;;;;;;;3.83;1.70;;;;;;;;;;5092208;28;20468;-66
2021/12/26 14:34:11;;;;;;;4.55;1.77;;;;;;;;;;5092146;28;20020;-64
2021/12/26 14:36:43;;;;;;;7.53;1.95;;;;;;;;;;5092828;28;20020;-74
2021/12/26 14:39:09;;;;;;;4.10;1.77;;;;;;;;;;5093166;28;20078;-64
2021/12/26 14:41:42;;;;;;;4.05;1.70;;;;;;;;;;5093081;28;20630;-64
2021/12/26 14:44:11;;;;;;;4.70;1.98;;;;;;;;;;5093126;28;20395;-74
2021/12/26 14:46:37;;;;;;;4.03;1.75;;;;;;;;;;5093217;28;20020;-70
2021/12/26 14:49:14;;;;;;;6.30;2.30;;;;;;;;;;5092720;28;20024;-65
2021/12/26 14:51:40;;;;;;;3.58;1.52;;;;;;;;;;5092731;28;20081;-68
2021/12/26 14:54:07;;;;;;;4.40;1.52;;;;;;;;;;5092815;28;20024;-74